sensor_id;sensor_type;location;lat;lon;timestamp;P1;durP1;ratioP1;P2;durP2;ratioP2
28834;SDS011;15969;51.536;11.884;2023-03-01T00:01:32;13.70;;;8.97;;
28834;SDS011;15969;51.536;11.884;2023-03-01T00:03:58;13.93;;;8.47;;
28834;SDS011;15969;51.536;11.884;2023-03-01T00:06:25;14.43;;;9.77;;
28834;SDS011;15969;51.536;11.884;2023-03-01T00:08:51;12.83;;;9.50;;
28834;SDS011;15969;51.536;11.884;2023-03-01T00:11:19;13.17;;;8.17;;
28834;SDS011;15969;51.536;11.884;2023-03-01T00:13:51;10.47;;;8.30;;
28834;SDS011;15969;51.536;11.884;2023-03-01T00:16:24;13.70;;;9.90;;
28834;SDS011;15969;51.536;11.884;2023-03-01T00:18:58;17.83;;;10.93;;
28834;SDS011;15969;51.536;11.884;2023-03-01T00:21:24;17.03;;;10.30;;
28834;SDS011;15969;51.536;11.884;2023-03-01T00:23:51;14.00;;;9.07;;
28834;SDS011;15969;51.536;11.884;2023-03-01T00:26:18;17.20;;;10.90;;
28834;SDS011;15969;51.536;11.884;2023-03-01T00:28:47;17.73;;;10.97;;
28834;SDS011;15969;51.536;11.884;2023-03-01T00:31:14;15.20;;;9.87;;
28834;SDS011;15969;51.536;11.884;2023-03-01T00:33:42;12.30;;;10.07;;
28834;SDS011;15969;51.536;11.884;2023-03-01T00:36:08;15.00;;;9.03;;
28834;SDS011;15969;51.536;11.884;2023-03-01T00:38:36;12.67;;;8.70;;
28834;SDS011;15969;51.536;11.884;2023-03-01T00:41:04;13.90;;;8.30;;
28834;SDS011;15969;51.536;11.884;2023-03-01T00:43:37;11.67;;;8.10;;
28834;SDS011;15969;51.536;11.884;2023-03-01T00:46:04;15.60;;;9.17;;
28834;SDS011;15969;51.536;11.884;2023-03-01T00:48:32;12.87;;;9.17;;
28834;SDS011;15969;51.536;11.884;2023-03-01T00:51:09;12.17;;;8.90;;
28834;SDS011;15969;51.536;11.884;2023-03-01T00:53:40;12.03;;;8.47;;
28834;SDS011;15969;51.536;11.884;2023-03-01T00:56:06;12.73;;;8.50;;
28834;SDS011;15969;51.536;11.884;2023-03-01T00:58:34;12.17;;;8.23;;
28834;SDS011;15969;51.536;11.884;2023-03-01T01:01:00;9.93;;;7.67;;
28834;SDS011;15969;51.536;11.884;2023-03-01T01:03:41;12.57;;;8.47;;
28834;SDS011;15969;51.536;11.884;2023-03-01T01:06:35;13.07;;;9.07;;
28834;SDS011;15969;51.536;11.884;2023-03-01T01:09:05;11.17;;;8.40;;
28834;SDS011;15969;51.536;11.884;2023-03-01T01:11:31;14.43;;;9.60;;
28834;SDS011;15969;51.536;11.884;2023-03-01T01:13:58;13.03;;;8.73;;
28834;SDS011;15969;51.536;11.884;2023-03-01T01:16:25;17.57;;;8.87;;
28834;SDS011;15969;51.536;11.884;2023-03-01T01:18:53;16.20;;;10.00;;
28834;SDS011;15969;51.536;11.884;2023-03-01T01:21:19;16.27;;;10.97;;
28834;SDS011;15969;51.536;11.884;2023-03-01T01:23:48;14.80;;;9.60;;
28834;SDS011;15969;51.536;11.884;2023-03-01T01:26:24;11.47;;;8.63;;
28834;SDS011;15969;51.536;11.884;2023-03-01T01:28:53;13.63;;;8.97;;
28834;SDS011;15969;51.536;11.884;2023-03-01T01:31:19;13.73;;;9.47;;
28834;SDS011;15969;51.536;11.884;2023-03-01T01:33:45;12.10;;;8.87;;
28834;SDS011;15969;51.536;11.884;2023-03-01T01:36:11;15.93;;;9.53;;
28834;SDS011;15969;51.536;11.884;2023-03-01T01:38:37;13.67;;;10.50;;
28834;SDS011;15969;51.536;11.884;2023-03-01T01:41:04;13.97;;;9.63;;
28834;SDS011;15969;51.536;11.884;2023-03-01T01:43:33;13.40;;;10.17;;
28834;SDS011;15969;51.536;11.884;2023-03-01T01:46:02;12.57;;;8.80;;
28834;SDS011;15969;51.536;11.884;2023-03-01T01:49:19;16.07;;;10.10;;
28834;SDS011;15969;51.536;11.884;2023-03-01T01:52:11;12.83;;;10.13;;
28834;SDS011;15969;51.536;11.884;2023-03-01T01:57:43;16.50;;;10.73;;
28834;SDS011;15969;51.536;11.884;2023-03-01T02:00:12;15.83;;;10.90;;
28834;SDS011;15969;51.536;11.884;2023-03-01T02:02:45;18.27;;;10.97;;
28834;SDS011;15969;51.536;11.884;2023-03-01T02:05:15;13.93;;;10.33;;
28834;SDS011;15969;51.536;11.884;2023-03-01T02:07:51;14.30;;;11.03;;
28834;SDS011;15969;51.536;11.884;2023-03-01T02:10:17;15.33;;;11.13;;
28834;SDS011;15969;51.536;11.884;2023-03-01T02:12:43;16.90;;;11.00;;
28834;SDS011;15969;51.536;11.884;2023-03-01T02:15:10;14.37;;;10.20;;
28834;SDS011;15969;51.536;11.884;2023-03-01T02:17:35;15.20;;;10.77;;
28834;SDS011;15969;51.536;11.884;2023-03-01T02:22:54;16.43;;;9.67;;
28834;SDS011;15969;51.536;11.884;2023-03-01T02:25:23;13.00;;;9.13;;
28834;SDS011;15969;51.536;11.884;2023-03-01T02:28:38;14.13;;;10.17;;
28834;SDS011;15969;51.536;11.884;2023-03-01T02:31:07;14.93;;;9.97;;
28834;SDS011;15969;51.536;11.884;2023-03-01T02:33:53;13.30;;;9.10;;
28834;SDS011;15969;51.536;11.884;2023-03-01T02:36:24;15.50;;;9.20;;
28834;SDS011;15969;51.536;11.884;2023-03-01T02:38:57;14.90;;;9.23;;
28834;SDS011;15969;51.536;11.884;2023-03-01T02:41:24;11.90;;;8.90;;
28834;SDS011;15969;51.536;11.884;2023-03-01T02:43:53;14.07;;;9.13;;
28834;SDS011;15969;51.536;11.884;2023-03-01T02:46:21;12.93;;;9.33;;
28834;SDS011;15969;51.536;11.884;2023-03-01T02:48:51;12.33;;;8.53;;
28834;SDS011;15969;51.536;11.884;2023-03-01T02:51:24;12.63;;;9.60;;
28834;SDS011;15969;51.536;11.884;2023-03-01T02:54:12;11.80;;;8.83;;
28834;SDS011;15969;51.536;11.884;2023-03-01T02:56:55;13.60;;;9.13;;
28834;SDS011;15969;51.536;11.884;2023-03-01T02:59:22;14.70;;;8.40;;
28834;SDS011;15969;51.536;11.884;2023-03-01T03:01:54;12.37;;;9.20;;
28834;SDS011;15969;51.536;11.884;2023-03-01T03:04:20;12.17;;;8.43;;
28834;SDS011;15969;51.536;11.884;2023-03-01T03:06:46;11.87;;;8.90;;
28834;SDS011;15969;51.536;11.884;2023-03-01T03:09:14;13.00;;;8.27;;
28834;SDS011;15969;51.536;11.884;2023-03-01T03:11:40;11.13;;;7.77;;
28834;SDS011;15969;51.536;11.884;2023-03-01T03:14:08;12.68;;;8.05;;
28834;SDS011;15969;51.536;11.884;2023-03-01T03:16:58;11.90;;;7.47;;
28834;SDS011;15969;51.536;11.884;2023-03-01T03:19:23;12.47;;;8.03;;
28834;SDS011;15969;51.536;11.884;2023-03-01T03:21:48;12.57;;;8.40;;
28834;SDS011;15969;51.536;11.884;2023-03-01T03:24:14;12.53;;;8.73;;
28834;SDS011;15969;51.536;11.884;2023-03-01T03:26:40;11.10;;;8.27;;
28834;SDS011;15969;51.536;11.884;2023-03-01T03:29:06;10.63;;;8.17;;
28834;SDS011;15969;51.536;11.884;2023-03-01T03:31:31;9.97;;;7.93;;
28834;SDS011;15969;51.536;11.884;2023-03-01T03:33:57;12.53;;;8.37;;
28834;SDS011;15969;51.536;11.884;2023-03-01T03:36:24;10.43;;;7.67;;
28834;SDS011;15969;51.536;11.884;2023-03-01T03:38:50;12.53;;;7.50;;
28834;SDS011;15969;51.536;11.884;2023-03-01T03:41:15;11.23;;;7.80;;
28834;SDS011;15969;51.536;11.884;2023-03-01T03:43:41;12.35;;;8.13;;
28834;SDS011;15969;51.536;11.884;2023-03-01T03:46:08;10.35;;;8.15;;
28834;SDS011;15969;51.536;11.884;2023-03-01T03:48:37;11.52;;;8.00;;
28834;SDS011;15969;51.536;11.884;2023-03-01T03:51:06;10.23;;;7.93;;
28834;SDS011;15969;51.536;11.884;2023-03-01T03:53:35;12.27;;;7.87;;
28834;SDS011;15969;51.536;11.884;2023-03-01T03:56:00;12.37;;;8.43;;
28834;SDS011;15969;51.536;11.884;2023-03-01T03:58:26;10.53;;;7.90;;
28834;SDS011;15969;51.536;11.884;2023-03-01T04:00:53;13.67;;;8.30;;
28834;SDS011;15969;51.536;11.884;2023-03-01T04:03:22;11.82;;;8.10;;
28834;SDS011;15969;51.536;11.884;2023-03-01T04:05:49;10.25;;;7.07;;
28834;SDS011;15969;51.536;11.884;2023-03-01T04:08:16;10.57;;;7.75;;
28834;SDS011;15969;51.536;11.884;2023-03-01T04:10:47;15.23;;;8.38;;
28834;SDS011;15969;51.536;11.884;2023-03-01T04:13:17;12.85;;;7.93;;
28834;SDS011;15969;51.536;11.884;2023-03-01T04:15:46;12.80;;;7.82;;
28834;SDS011;15969;51.536;11.884;2023-03-01T04:18:14;12.63;;;7.93;;
28834;SDS011;15969;51.536;11.884;2023-03-01T04:20:41;14.13;;;8.98;;
28834;SDS011;15969;51.536;11.884;2023-03-01T04:23:09;14.10;;;8.83;;
28834;SDS011;15969;51.536;11.884;2023-03-01T04:28:24;12.43;;;8.38;;
28834;SDS011;15969;51.536;11.884;2023-03-01T04:30:54;9.35;;;7.80;;
28834;SDS011;15969;51.536;11.884;2023-03-01T04:33:23;11.18;;;7.15;;
28834;SDS011;15969;51.536;11.884;2023-03-01T04:35:50;14.07;;;7.70;;
28834;SDS011;15969;51.536;11.884;2023-03-01T04:38:17;13.02;;;7.43;;
28834;SDS011;15969;51.536;11.884;2023-03-01T04:40:43;11.68;;;7.53;;
28834;SDS011;15969;51.536;11.884;2023-03-01T04:43:10;10.03;;;6.77;;
28834;SDS011;15969;51.536;11.884;2023-03-01T04:45:38;11.45;;;7.78;;
28834;SDS011;15969;51.536;11.884;2023-03-01T04:48:04;10.27;;;7.43;;
28834;SDS011;15969;51.536;11.884;2023-03-01T04:50:30;10.35;;;7.70;;
28834;SDS011;15969;51.536;11.884;2023-03-01T04:52:56;10.05;;;6.75;;
28834;SDS011;15969;51.536;11.884;2023-03-01T04:55:23;11.10;;;7.75;;
28834;SDS011;15969;51.536;11.884;2023-03-01T04:57:53;12.65;;;8.55;;
28834;SDS011;15969;51.536;11.884;2023-03-01T05:00:19;10.85;;;7.68;;
28834;SDS011;15969;51.536;11.884;2023-03-01T05:02:55;12.55;;;7.72;;
28834;SDS011;15969;51.536;11.884;2023-03-01T05:05:31;12.70;;;8.50;;
28834;SDS011;15969;51.536;11.884;2023-03-01T05:08:02;14.73;;;8.32;;
28834;SDS011;15969;51.536;11.884;2023-03-01T05:10:33;13.50;;;8.55;;
28834;SDS011;15969;51.536;11.884;2023-03-01T05:13:01;13.37;;;9.37;;
28834;SDS011;15969;51.536;11.884;2023-03-01T05:15:28;13.57;;;8.60;;
28834;SDS011;15969;51.536;11.884;2023-03-01T05:17:57;16.77;;;9.85;;
28834;SDS011;15969;51.536;11.884;2023-03-01T05:20:28;14.80;;;8.82;;
28834;SDS011;15969;51.536;11.884;2023-03-01T05:22:55;15.10;;;10.52;;
28834;SDS011;15969;51.536;11.884;2023-03-01T05:25:23;17.20;;;10.05;;
28834;SDS011;15969;51.536;11.884;2023-03-01T05:27:49;16.23;;;10.40;;
28834;SDS011;15969;51.536;11.884;2023-03-01T05:30:16;17.10;;;9.77;;
28834;SDS011;15969;51.536;11.884;2023-03-01T05:32:43;16.80;;;10.27;;
28834;SDS011;15969;51.536;11.884;2023-03-01T05:35:12;16.15;;;9.98;;
28834;SDS011;15969;51.536;11.884;2023-03-01T05:37:43;14.30;;;9.73;;
28834;SDS011;15969;51.536;11.884;2023-03-01T05:40:12;15.13;;;9.23;;
28834;SDS011;15969;51.536;11.884;2023-03-01T05:42:48;17.93;;;10.67;;
28834;SDS011;15969;51.536;11.884;2023-03-01T05:45:19;15.75;;;10.50;;
28834;SDS011;15969;51.536;11.884;2023-03-01T05:47:46;18.50;;;10.37;;
28834;SDS011;15969;51.536;11.884;2023-03-01T05:50:14;13.93;;;10.07;;
28834;SDS011;15969;51.536;11.884;2023-03-01T05:52:44;17.88;;;10.75;;
28834;SDS011;15969;51.536;11.884;2023-03-01T05:55:11;15.80;;;10.53;;
28834;SDS011;15969;51.536;11.884;2023-03-01T05:57:37;16.43;;;10.73;;
28834;SDS011;15969;51.536;11.884;2023-03-01T06:00:03;14.90;;;10.67;;
28834;SDS011;15969;51.536;11.884;2023-03-01T06:02:31;22.35;;;10.90;;
28834;SDS011;15969;51.536;11.884;2023-03-01T06:04:56;16.67;;;10.97;;
28834;SDS011;15969;51.536;11.884;2023-03-01T06:07:23;17.67;;;9.98;;
28834;SDS011;15969;51.536;11.884;2023-03-01T06:09:48;17.13;;;11.37;;
28834;SDS011;15969;51.536;11.884;2023-03-01T06:12:14;17.33;;;10.77;;
28834;SDS011;15969;51.536;11.884;2023-03-01T06:14:40;21.23;;;11.07;;
28834;SDS011;15969;51.536;11.884;2023-03-01T06:17:05;15.83;;;10.63;;
28834;SDS011;15969;51.536;11.884;2023-03-01T06:19:31;15.07;;;10.60;;
28834;SDS011;15969;51.536;11.884;2023-03-01T06:21:57;19.40;;;11.60;;
28834;SDS011;15969;51.536;11.884;2023-03-01T06:24:22;17.57;;;10.93;;
28834;SDS011;15969;51.536;11.884;2023-03-01T06:26:48;17.40;;;11.13;;
28834;SDS011;15969;51.536;11.884;2023-03-01T06:29:13;16.20;;;11.27;;
28834;SDS011;15969;51.536;11.884;2023-03-01T06:31:39;20.03;;;11.10;;
28834;SDS011;15969;51.536;11.884;2023-03-01T06:34:05;19.67;;;11.53;;
28834;SDS011;15969;51.536;11.884;2023-03-01T06:36:30;19.57;;;12.73;;
28834;SDS011;15969;51.536;11.884;2023-03-01T06:38:56;21.77;;;13.13;;
28834;SDS011;15969;51.536;11.884;2023-03-01T06:41:22;21.33;;;13.63;;
28834;SDS011;15969;51.536;11.884;2023-03-01T06:43:47;21.07;;;12.23;;
28834;SDS011;15969;51.536;11.884;2023-03-01T06:46:13;22.13;;;13.40;;
28834;SDS011;15969;51.536;11.884;2023-03-01T06:48:39;24.80;;;15.20;;
28834;SDS011;15969;51.536;11.884;2023-03-01T06:51:04;35.20;;;16.23;;
28834;SDS011;15969;51.536;11.884;2023-03-01T06:53:30;24.20;;;14.03;;
28834;SDS011;15969;51.536;11.884;2023-03-01T06:55:56;20.37;;;13.67;;
28834;SDS011;15969;51.536;11.884;2023-03-01T06:58:22;21.77;;;13.57;;
28834;SDS011;15969;51.536;11.884;2023-03-01T07:00:48;21.87;;;14.30;;
28834;SDS011;15969;51.536;11.884;2023-03-01T07:03:14;22.47;;;15.67;;
28834;SDS011;15969;51.536;11.884;2023-03-01T07:05:39;29.70;;;16.37;;
28834;SDS011;15969;51.536;11.884;2023-03-01T07:08:05;28.13;;;16.10;;
28834;SDS011;15969;51.536;11.884;2023-03-01T07:10:31;26.27;;;14.67;;
28834;SDS011;15969;51.536;11.884;2023-03-01T07:12:57;24.53;;;14.93;;
28834;SDS011;15969;51.536;11.884;2023-03-01T07:15:23;30.87;;;17.40;;
28834;SDS011;15969;51.536;11.884;2023-03-01T07:17:50;28.40;;;16.97;;
28834;SDS011;15969;51.536;11.884;2023-03-01T07:20:17;32.10;;;17.17;;
28834;SDS011;15969;51.536;11.884;2023-03-01T07:22:43;28.97;;;17.40;;
28834;SDS011;15969;51.536;11.884;2023-03-01T07:25:10;32.97;;;18.17;;
28834;SDS011;15969;51.536;11.884;2023-03-01T07:27:35;27.23;;;18.00;;
28834;SDS011;15969;51.536;11.884;2023-03-01T07:30:01;28.63;;;16.53;;
28834;SDS011;15969;51.536;11.884;2023-03-01T07:32:28;28.47;;;16.93;;
28834;SDS011;15969;51.536;11.884;2023-03-01T07:34:54;30.23;;;16.17;;
28834;SDS011;15969;51.536;11.884;2023-03-01T07:37:19;26.97;;;15.60;;
28834;SDS011;15969;51.536;11.884;2023-03-01T07:39:45;24.27;;;16.07;;
28834;SDS011;15969;51.536;11.884;2023-03-01T07:42:11;24.33;;;14.60;;
28834;SDS011;15969;51.536;11.884;2023-03-01T07:44:36;24.43;;;16.23;;
28834;SDS011;15969;51.536;11.884;2023-03-01T07:47:03;24.03;;;14.40;;
28834;SDS011;15969;51.536;11.884;2023-03-01T07:49:29;23.43;;;16.00;;
28834;SDS011;15969;51.536;11.884;2023-03-01T07:51:55;24.87;;;15.00;;
28834;SDS011;15969;51.536;11.884;2023-03-01T07:54:21;23.43;;;14.50;;
28834;SDS011;15969;51.536;11.884;2023-03-01T07:56:46;19.77;;;13.63;;
28834;SDS011;15969;51.536;11.884;2023-03-01T07:59:12;20.53;;;12.83;;
28834;SDS011;15969;51.536;11.884;2023-03-01T08:01:38;25.80;;;15.23;;
28834;SDS011;15969;51.536;11.884;2023-03-01T08:04:03;26.50;;;15.47;;
28834;SDS011;15969;51.536;11.884;2023-03-01T08:06:31;25.50;;;15.23;;
28834;SDS011;15969;51.536;11.884;2023-03-01T08:08:59;24.27;;;15.63;;
28834;SDS011;15969;51.536;11.884;2023-03-01T08:11:25;21.73;;;16.13;;
28834;SDS011;15969;51.536;11.884;2023-03-01T08:13:53;26.13;;;16.57;;
28834;SDS011;15969;51.536;11.884;2023-03-01T08:16:19;23.70;;;16.87;;
28834;SDS011;15969;51.536;11.884;2023-03-01T08:18:44;29.67;;;18.37;;
28834;SDS011;15969;51.536;11.884;2023-03-01T08:21:11;29.00;;;18.43;;
28834;SDS011;15969;51.536;11.884;2023-03-01T08:23:40;27.27;;;18.30;;
28834;SDS011;15969;51.536;11.884;2023-03-01T08:26:10;24.60;;;18.23;;
28834;SDS011;15969;51.536;11.884;2023-03-01T08:28:39;27.17;;;17.23;;
28834;SDS011;15969;51.536;11.884;2023-03-01T08:31:19;22.77;;;16.10;;
28834;SDS011;15969;51.536;11.884;2023-03-01T08:33:51;24.93;;;15.63;;
28834;SDS011;15969;51.536;11.884;2023-03-01T08:36:25;22.57;;;16.27;;
28834;SDS011;15969;51.536;11.884;2023-03-01T08:39:00;23.40;;;16.17;;
28834;SDS011;15969;51.536;11.884;2023-03-01T08:41:26;24.33;;;15.93;;
28834;SDS011;15969;51.536;11.884;2023-03-01T08:43:51;22.10;;;15.40;;
28834;SDS011;15969;51.536;11.884;2023-03-01T08:46:23;22.60;;;15.50;;
28834;SDS011;15969;51.536;11.884;2023-03-01T08:48:57;23.37;;;14.10;;
28834;SDS011;15969;51.536;11.884;2023-03-01T08:51:23;21.20;;;13.40;;
28834;SDS011;15969;51.536;11.884;2023-03-01T08:53:50;19.93;;;13.57;;
28834;SDS011;15969;51.536;11.884;2023-03-01T08:56:16;18.63;;;12.90;;
28834;SDS011;15969;51.536;11.884;2023-03-01T08:58:43;19.40;;;12.77;;
28834;SDS011;15969;51.536;11.884;2023-03-01T09:01:11;17.07;;;12.70;;
28834;SDS011;15969;51.536;11.884;2023-03-01T09:03:39;18.30;;;12.47;;
28834;SDS011;15969;51.536;11.884;2023-03-01T09:06:06;16.67;;;11.70;;
28834;SDS011;15969;51.536;11.884;2023-03-01T09:08:36;15.93;;;12.13;;
28834;SDS011;15969;51.536;11.884;2023-03-01T09:11:04;19.73;;;12.43;;
28834;SDS011;15969;51.536;11.884;2023-03-01T09:13:32;15.17;;;11.83;;
28834;SDS011;15969;51.536;11.884;2023-03-01T09:15:58;16.67;;;11.93;;
28834;SDS011;15969;51.536;11.884;2023-03-01T09:18:26;19.13;;;11.90;;
28834;SDS011;15969;51.536;11.884;2023-03-01T09:20:52;17.43;;;11.30;;
28834;SDS011;15969;51.536;11.884;2023-03-01T09:23:20;15.53;;;11.47;;
28834;SDS011;15969;51.536;11.884;2023-03-01T09:25:46;15.03;;;11.37;;
28834;SDS011;15969;51.536;11.884;2023-03-01T09:28:12;17.27;;;11.67;;
28834;SDS011;15969;51.536;11.884;2023-03-01T09:30:37;15.70;;;11.20;;
28834;SDS011;15969;51.536;11.884;2023-03-01T09:33:03;17.43;;;11.10;;
28834;SDS011;15969;51.536;11.884;2023-03-01T09:35:28;15.40;;;11.13;;
28834;SDS011;15969;51.536;11.884;2023-03-01T09:37:55;13.83;;;11.17;;
28834;SDS011;15969;51.536;11.884;2023-03-01T09:40:21;14.07;;;10.83;;
28834;SDS011;15969;51.536;11.884;2023-03-01T09:42:57;15.60;;;10.43;;
28834;SDS011;15969;51.536;11.884;2023-03-01T09:45:41;14.23;;;10.33;;
28834;SDS011;15969;51.536;11.884;2023-03-01T09:48:12;12.43;;;9.73;;
28834;SDS011;15969;51.536;11.884;2023-03-01T09:50:43;13.47;;;9.57;;
28834;SDS011;15969;51.536;11.884;2023-03-01T09:53:15;13.63;;;9.13;;
28834;SDS011;15969;51.536;11.884;2023-03-01T09:55:46;14.53;;;10.47;;
28834;SDS011;15969;51.536;11.884;2023-03-01T10:01:55;16.40;;;10.00;;
28834;SDS011;15969;51.536;11.884;2023-03-01T10:04:50;19.50;;;10.43;;
28834;SDS011;15969;51.536;11.884;2023-03-01T10:07:22;13.37;;;9.70;;
28834;SDS011;15969;51.536;11.884;2023-03-01T10:09:59;15.30;;;9.60;;
28834;SDS011;15969;51.536;11.884;2023-03-01T10:12:33;14.03;;;10.27;;
28834;SDS011;15969;51.536;11.884;2023-03-01T10:15:11;15.90;;;10.37;;
28834;SDS011;15969;51.536;11.884;2023-03-01T10:18:04;14.97;;;9.83;;
28834;SDS011;15969;51.536;11.884;2023-03-01T10:20:41;13.97;;;10.03;;
28834;SDS011;15969;51.536;11.884;2023-03-01T10:23:30;12.30;;;8.93;;
28834;SDS011;15969;51.536;11.884;2023-03-01T10:26:22;12.80;;;9.43;;
28834;SDS011;15969;51.536;11.884;2023-03-01T10:29:10;15.07;;;10.30;;
28834;SDS011;15969;51.536;11.884;2023-03-01T10:31:47;16.70;;;10.40;;
28834;SDS011;15969;51.536;11.884;2023-03-01T10:34:20;16.00;;;11.23;;
28834;SDS011;15969;51.536;11.884;2023-03-01T10:37:01;13.80;;;10.00;;
28834;SDS011;15969;51.536;11.884;2023-03-01T10:39:56;16.00;;;9.93;;
28834;SDS011;15969;51.536;11.884;2023-03-01T10:42:31;18.37;;;10.27;;
28834;SDS011;15969;51.536;11.884;2023-03-01T10:44:58;16.17;;;11.40;;
28834;SDS011;15969;51.536;11.884;2023-03-01T10:50:45;14.53;;;10.40;;
28834;SDS011;15969;51.536;11.884;2023-03-01T10:56:13;16.07;;;10.73;;
28834;SDS011;15969;51.536;11.884;2023-03-01T10:58:57;14.33;;;10.27;;
28834;SDS011;15969;51.536;11.884;2023-03-01T11:01:29;12.90;;;10.63;;
28834;SDS011;15969;51.536;11.884;2023-03-01T11:06:31;13.60;;;9.20;;
28834;SDS011;15969;51.536;11.884;2023-03-01T11:09:12;13.33;;;9.37;;
28834;SDS011;15969;51.536;11.884;2023-03-01T11:11:51;14.33;;;9.20;;
28834;SDS011;15969;51.536;11.884;2023-03-01T11:14:22;13.40;;;9.57;;
28834;SDS011;15969;51.536;11.884;2023-03-01T11:16:58;13.23;;;9.40;;
28834;SDS011;15969;51.536;11.884;2023-03-01T11:19:40;11.60;;;8.57;;
28834;SDS011;15969;51.536;11.884;2023-03-01T11:22:14;13.27;;;9.63;;
28834;SDS011;15969;51.536;11.884;2023-03-01T11:24:51;12.53;;;8.57;;
28834;SDS011;15969;51.536;11.884;2023-03-01T11:27:21;14.67;;;9.23;;
28834;SDS011;15969;51.536;11.884;2023-03-01T11:30:03;12.83;;;8.80;;
28834;SDS011;15969;51.536;11.884;2023-03-01T11:32:52;11.87;;;8.83;;
28834;SDS011;15969;51.536;11.884;2023-03-01T11:35:34;13.30;;;8.87;;
28834;SDS011;15969;51.536;11.884;2023-03-01T11:40:54;11.33;;;8.67;;
28834;SDS011;15969;51.536;11.884;2023-03-01T12:00:47;11.50;;;7.87;;
28834;SDS011;15969;51.536;11.884;2023-03-01T12:04:02;12.53;;;7.33;;
28834;SDS011;15969;51.536;11.884;2023-03-01T12:12:24;11.20;;;7.03;;
28834;SDS011;15969;51.536;11.884;2023-03-01T12:21:14;9.23;;;6.53;;
28834;SDS011;15969;51.536;11.884;2023-03-01T12:23:58;8.83;;;6.77;;
28834;SDS011;15969;51.536;11.884;2023-03-01T12:29:38;10.07;;;7.07;;
28834;SDS011;15969;51.536;11.884;2023-03-01T12:33:00;9.07;;;6.47;;
28834;SDS011;15969;51.536;11.884;2023-03-01T12:38:41;9.17;;;7.17;;
28834;SDS011;15969;51.536;11.884;2023-03-01T12:44:23;9.10;;;7.17;;
28834;SDS011;15969;51.536;11.884;2023-03-01T12:47:31;8.63;;;6.10;;
28834;SDS011;15969;51.536;11.884;2023-03-01T12:50:24;7.70;;;6.17;;
28834;SDS011;15969;51.536;11.884;2023-03-01T12:53:24;7.83;;;5.93;;
28834;SDS011;15969;51.536;11.884;2023-03-01T12:55:54;7.93;;;5.80;;
28834;SDS011;15969;51.536;11.884;2023-03-01T12:58:31;7.43;;;5.90;;
28834;SDS011;15969;51.536;11.884;2023-03-01T13:01:39;7.73;;;5.57;;
28834;SDS011;15969;51.536;11.884;2023-03-01T13:04:46;9.13;;;6.10;;
28834;SDS011;15969;51.536;11.884;2023-03-01T13:10:33;6.73;;;5.00;;
28834;SDS011;15969;51.536;11.884;2023-03-01T13:15:40;8.30;;;5.07;;
28834;SDS011;15969;51.536;11.884;2023-03-01T13:23:13;8.37;;;5.03;;
28834;SDS011;15969;51.536;11.884;2023-03-01T13:33:46;14.83;;;7.10;;
28834;SDS011;15969;51.536;11.884;2023-03-01T13:44:24;5.73;;;4.27;;
28834;SDS011;15969;51.536;11.884;2023-03-01T13:49:55;7.97;;;5.30;;
28834;SDS011;15969;51.536;11.884;2023-03-01T13:52:35;7.87;;;5.40;;
28834;SDS011;15969;51.536;11.884;2023-03-01T13:55:06;5.63;;;4.83;;
28834;SDS011;15969;51.536;11.884;2023-03-01T13:57:39;6.80;;;5.07;;
28834;SDS011;15969;51.536;11.884;2023-03-01T14:03:19;8.20;;;4.77;;
28834;SDS011;15969;51.536;11.884;2023-03-01T14:06:05;4.83;;;4.10;;
28834;SDS011;15969;51.536;11.884;2023-03-01T14:08:46;7.57;;;5.20;;
28834;SDS011;15969;51.536;11.884;2023-03-01T14:15:02;6.13;;;4.33;;
28834;SDS011;15969;51.536;11.884;2023-03-01T14:20:33;5.87;;;4.97;;
28834;SDS011;15969;51.536;11.884;2023-03-01T14:23:14;6.63;;;4.73;;
28834;SDS011;15969;51.536;11.884;2023-03-01T14:25:47;5.50;;;4.70;;
28834;SDS011;15969;51.536;11.884;2023-03-01T14:28:20;6.47;;;4.70;;
28834;SDS011;15969;51.536;11.884;2023-03-01T14:30:53;5.23;;;4.33;;
28834;SDS011;15969;51.536;11.884;2023-03-01T14:33:23;6.90;;;5.23;;
28834;SDS011;15969;51.536;11.884;2023-03-01T14:36:09;7.17;;;4.57;;
28834;SDS011;15969;51.536;11.884;2023-03-01T14:38:39;6.80;;;4.63;;
28834;SDS011;15969;51.536;11.884;2023-03-01T14:41:09;5.03;;;4.40;;
28834;SDS011;15969;51.536;11.884;2023-03-01T14:43:50;5.97;;;5.07;;
28834;SDS011;15969;51.536;11.884;2023-03-01T14:46:24;5.63;;;4.20;;
28834;SDS011;15969;51.536;11.884;2023-03-01T14:48:57;5.30;;;4.53;;
28834;SDS011;15969;51.536;11.884;2023-03-01T14:51:39;5.30;;;4.10;;
28834;SDS011;15969;51.536;11.884;2023-03-01T14:57:12;5.07;;;4.03;;
28834;SDS011;15969;51.536;11.884;2023-03-01T14:59:41;5.07;;;4.50;;
28834;SDS011;15969;51.536;11.884;2023-03-01T15:02:10;4.33;;;3.93;;
28834;SDS011;15969;51.536;11.884;2023-03-01T15:04:48;5.07;;;4.23;;
28834;SDS011;15969;51.536;11.884;2023-03-01T15:07:21;5.97;;;4.00;;
28834;SDS011;15969;51.536;11.884;2023-03-01T15:09:53;5.10;;;4.60;;
28834;SDS011;15969;51.536;11.884;2023-03-01T15:12:52;4.47;;;4.00;;
28834;SDS011;15969;51.536;11.884;2023-03-01T15:17:59;4.33;;;3.93;;
28834;SDS011;15969;51.536;11.884;2023-03-01T15:20:28;5.97;;;4.53;;
28834;SDS011;15969;51.536;11.884;2023-03-01T15:23:00;7.80;;;4.97;;
28834;SDS011;15969;51.536;11.884;2023-03-01T15:25:27;61.97;;;8.07;;
28834;SDS011;15969;51.536;11.884;2023-03-01T15:27:55;5.33;;;4.23;;
28834;SDS011;15969;51.536;11.884;2023-03-01T15:30:24;10.73;;;4.73;;
28834;SDS011;15969;51.536;11.884;2023-03-01T15:35:56;5.40;;;4.67;;
28834;SDS011;15969;51.536;11.884;2023-03-01T15:40:57;6.07;;;5.20;;
28834;SDS011;15969;51.536;11.884;2023-03-01T15:43:44;4.80;;;4.20;;
28834;SDS011;15969;51.536;11.884;2023-03-01T15:46:16;5.47;;;4.20;;
28834;SDS011;15969;51.536;11.884;2023-03-01T15:48:46;5.80;;;5.17;;
28834;SDS011;15969;51.536;11.884;2023-03-01T15:51:15;5.70;;;5.10;;
28834;SDS011;15969;51.536;11.884;2023-03-01T15:53:42;6.30;;;4.80;;
28834;SDS011;15969;51.536;11.884;2023-03-01T15:56:13;5.57;;;5.07;;
28834;SDS011;15969;51.536;11.884;2023-03-01T15:58:38;6.93;;;5.23;;
28834;SDS011;15969;51.536;11.884;2023-03-01T16:01:08;5.90;;;5.03;;
28834;SDS011;15969;51.536;11.884;2023-03-01T16:03:38;6.40;;;5.43;;
28834;SDS011;15969;51.536;11.884;2023-03-01T16:06:04;5.77;;;5.10;;
28834;SDS011;15969;51.536;11.884;2023-03-01T16:08:30;6.83;;;4.93;;
28834;SDS011;15969;51.536;11.884;2023-03-01T16:10:55;5.60;;;4.97;;
28834;SDS011;15969;51.536;11.884;2023-03-01T16:13:21;7.67;;;5.50;;
28834;SDS011;15969;51.536;11.884;2023-03-01T16:15:47;6.40;;;5.50;;
28834;SDS011;15969;51.536;11.884;2023-03-01T16:18:12;7.97;;;5.70;;
28834;SDS011;15969;51.536;11.884;2023-03-01T16:20:38;5.70;;;5.10;;
28834;SDS011;15969;51.536;11.884;2023-03-01T16:23:05;6.63;;;4.70;;
28834;SDS011;15969;51.536;11.884;2023-03-01T16:25:33;5.47;;;4.97;;
28834;SDS011;15969;51.536;11.884;2023-03-01T16:28:00;6.27;;;4.90;;
28834;SDS011;15969;51.536;11.884;2023-03-01T16:30:29;6.07;;;5.03;;
28834;SDS011;15969;51.536;11.884;2023-03-01T16:32:55;6.37;;;5.53;;
28834;SDS011;15969;51.536;11.884;2023-03-01T16:35:21;6.03;;;4.87;;